Time;durP1;ratioP1;P1;durP2;ratioP2;P2;SDS_P1;SDS_P2;PMS_P1;PMS_P2;Temp;Humidity;BMP_temperature;BMP_pressure;BME280_temperature;BME280_humidity;BME280_pressure;Samples;Min_cycle;Max_cycle;Signal;HPM_P1;HPM_P2
2021/12/12 00:01:06;;;;;;;6.40;4.03;;;;;11.70;101776.00;;;;5029253;28;20667;-82
2021/12/12 00:03:39;;;;;;;7.57;4.10;;;;;11.80;101768.00;;;;5031282;28;20231;-83
2021/12/12 00:06:12;;;;;;;8.00;4.28;;;;;11.70;101764.00;;;;5030561;28;20196;-83
2021/12/12 00:08:41;;;;;;;7.03;4.22;;;;;11.80;101766.00;;;;5029879;28;20193;-83
2021/12/12 00:11:12;;;;;;;9.02;4.28;;;;;11.80;101763.00;;;;5031429;28;20184;-83
2021/12/12 00:13:42;;;;;;;7.45;3.95;;;;;11.80;101764.00;;;;5031372;28;20197;-83
2021/12/12 00:16:10;;;;;;;7.20;4.53;;;;;11.80;101756.00;;;;5029936;28;20192;-83
2021/12/12 00:18:38;;;;;;;8.27;4.47;;;;;11.80;101757.00;;;;5020218;28;20211;-83
2021/12/12 00:21:08;;;;;;;7.10;4.18;;;;;11.80;101759.00;;;;5030791;28;20211;-83
2021/12/12 00:23:35;;;;;;;7.43;3.83;;;;;11.80;101765.00;;;;5018521;28;20216;-82
2021/12/12 00:26:03;;;;;;;7.00;3.97;;;;;11.80;101766.00;;;;5030559;28;20224;-83
2021/12/12 00:28:31;;;;;;;9.98;4.40;;;;;11.80;101762.00;;;;5030667;28;20196;-83
2021/12/12 00:31:08;;;;;;;6.25;3.70;;;;;11.80;101760.00;;;;5030565;28;20204;-82
2021/12/12 00:33:36;;;;;;;7.13;3.65;;;;;11.80;101758.00;;;;5014482;28;20585;-83
2021/12/12 00:36:05;;;;;;;4.97;3.72;;;;;11.80;101760.00;;;;5029110;28;20196;-82
2021/12/12 00:38:36;;;;;;;6.05;3.63;;;;;11.80;101758.00;;;;5029970;28;20648;-83
2021/12/12 00:41:07;;;;;;;7.78;3.53;;;;;11.80;101750.00;;;;5030213;28;20193;-83
2021/12/12 00:43:37;;;;;;;6.30;4.40;;;;;11.80;101739.00;;;;5029606;28;20232;-82
2021/12/12 00:46:08;;;;;;;5.68;3.22;;;;;11.80;101742.00;;;;5023044;28;20199;-82
2021/12/12 00:48:37;;;;;;;7.78;3.92;;;;;11.90;101736.00;;;;5018396;28;20192;-83
2021/12/12 00:51:08;;;;;;;9.05;3.05;;;;;11.90;101735.00;;;;5024313;28;20209;-83
2021/12/12 00:53:38;;;;;;;5.40;2.90;;;;;11.90;101733.00;;;;5029730;28;20196;-83
2021/12/12 00:56:06;;;;;;;7.38;3.28;;;;;11.90;101735.00;;;;5030166;28;20220;-82
2021/12/12 00:58:34;;;;;;;8.23;3.28;;;;;11.90;101733.00;;;;5030347;28;20215;-82
2021/12/12 01:01:05;;;;;;;5.45;3.47;;;;;11.90;101737.00;;;;5030419;28;20200;-82
2021/12/12 01:03:37;;;;;;;5.55;3.03;;;;;11.90;101722.00;;;;5029293;28;20238;-83
2021/12/12 01:06:07;;;;;;;5.68;2.72;;;;;11.90;101719.00;;;;5030375;28;20208;-82
2021/12/12 01:08:37;;;;;;;4.88;3.42;;;;;11.90;101716.00;;;;5024085;28;20601;-82
2021/12/12 01:11:11;;;;;;;3.53;2.65;;;;;11.90;101722.00;;;;5030921;28;20192;-82
2021/12/12 01:13:39;;;;;;;7.28;2.88;;;;;12.00;101721.00;;;;5029281;28;20669;-81
2021/12/12 01:16:11;;;;;;;7.22;3.47;;;;;11.90;101728.00;;;;5030457;28;20215;-82
2021/12/12 01:18:45;;;;;;;7.03;2.50;;;;;11.90;101729.00;;;;5029280;28;20188;-82
2021/12/12 01:21:17;;;;;;;7.40;3.40;;;;;11.90;101726.00;;;;5030127;28;20267;-82
2021/12/12 01:23:50;;;;;;;3.88;2.65;;;;;11.90;101726.00;;;;5029038;28;20701;-83
2021/12/12 01:26:17;;;;;;;6.05;2.60;;;;;11.90;101725.00;;;;5025793;28;20209;-82
2021/12/12 01:28:49;;;;;;;4.60;2.88;;;;;11.90;101729.00;;;;5029268;28;20197;-83
2021/12/12 01:31:24;;;;;;;6.50;2.65;;;;;11.90;101734.00;;;;5029944;28;20272;-83
2021/12/12 01:33:58;;;;;;;7.18;2.90;;;;;12.00;101735.00;;;;5029488;28;20247;-82
2021/12/12 01:36:31;;;;;;;3.53;2.15;;;;;12.00;101736.00;;;;5029174;28;20203;-82
2021/12/12 01:39:00;;;;;;;5.50;2.65;;;;;12.00;101744.00;;;;5026942;28;20199;-83
2021/12/12 01:41:31;;;;;;;4.32;2.38;;;;;11.90;101747.00;;;;5028739;28;20279;-82
2021/12/12 01:44:03;;;;;;;6.47;3.00;;;;;11.90;101745.00;;;;5029460;28;20282;-83
2021/12/12 01:46:34;;;;;;;6.18;3.13;;;;;12.00;101741.00;;;;5028373;28;20196;-83
2021/12/12 01:49:08;;;;;;;4.90;3.03;;;;;11.90;101739.00;;;;5025375;28;20581;-83
2021/12/12 01:51:38;;;;;;;6.20;2.78;;;;;12.00;101734.00;;;;5039522;28;20207;-80
2021/12/12 01:54:08;;;;;;;6.10;2.42;;;;;12.00;101739.00;;;;5040434;28;20633;-80
2021/12/12 01:56:42;;;;;;;6.00;2.38;;;;;12.00;101734.00;;;;5040045;28;20226;-80
2021/12/12 01:59:12;;;;;;;4.28;2.70;;;;;12.00;101724.00;;;;5040448;28;20232;-81
2021/12/12 02:01:42;;;;;;;6.25;2.55;;;;;12.00;101734.00;;;;5037758;28;20196;-80
2021/12/12 02:04:13;;;;;;;4.95;2.47;;;;;12.00;101728.00;;;;5040177;28;20219;-80
2021/12/12 02:06:43;;;;;;;8.80;2.88;;;;;12.00;101723.00;;;;5039405;28;20199;-81
2021/12/12 02:09:12;;;;;;;4.68;2.50;;;;;12.00;101728.00;;;;5040728;28;20199;-81
2021/12/12 02:11:42;;;;;;;3.83;2.10;;;;;12.00;101727.00;;;;5038921;28;20196;-81
2021/12/12 02:14:12;;;;;;;4.60;2.55;;;;;12.00;101728.00;;;;5037604;28;20258;-81
2021/12/12 02:16:43;;;;;;;4.57;2.22;;;;;12.00;101719.00;;;;5025547;28;20193;-81
2021/12/12 02:19:12;;;;;;;3.83;2.05;;;;;12.00;101712.00;;;;5036993;28;20204;-81
2021/12/12 02:21:57;;;;;;;4.25;2.10;;;;;12.00;101714.00;;;;5035139;28;20681;-81
2021/12/12 02:35:42;;;;;;;4.00;2.50;;;;;12.00;101697.00;;;;5031583;28;20246;-82
2021/12/12 02:38:11;;;;;;;4.75;2.03;;;;;12.00;101692.00;;;;5033196;28;20204;-82
2021/12/12 02:40:43;;;;;;;4.93;2.22;;;;;12.00;101681.00;;;;5032701;28;20211;-82
2021/12/12 02:43:13;;;;;;;4.80;2.38;;;;;12.00;101679.00;;;;5014102;28;20251;-82
2021/12/12 02:45:42;;;;;;;4.15;2.00;;;;;12.00;101685.00;;;;5032992;28;20702;-82
2021/12/12 02:48:16;;;;;;;5.03;2.40;;;;;12.00;101692.00;;;;5033312;28;20286;-82
2021/12/12 02:50:48;;;;;;;5.65;2.58;;;;;12.00;101690.00;;;;5032218;28;20204;-83
2021/12/12 02:53:19;;;;;;;4.57;2.83;;;;;12.00;101698.00;;;;5032522;28;20188;-83
2021/12/12 02:55:51;;;;;;;9.38;2.78;;;;;12.00;101694.00;;;;5030174;28;20231;-83
2021/12/12 02:58:21;;;;;;;4.80;2.17;;;;;12.00;101690.00;;;;5039181;28;20196;-82
2021/12/12 03:00:52;;;;;;;4.68;2.80;;;;;12.00;101688.00;;;;5039559;28;20195;-82
2021/12/12 03:03:20;;;;;;;4.63;2.63;;;;;12.00;101686.00;;;;5035600;28;20203;-83
2021/12/12 03:05:48;;;;;;;5.85;2.60;;;;;12.00;101686.00;;;;5032733;28;20228;-83
2021/12/12 03:08:16;;;;;;;3.58;2.17;;;;;12.00;101686.00;;;;5034879;28;20196;-83
2021/12/12 03:10:49;;;;;;;5.38;2.42;;;;;12.00;101680.00;;;;5033331;28;20200;-83
2021/12/12 03:13:17;;;;;;;4.63;2.83;;;;;12.00;101672.00;;;;5031416;28;20220;-83
2021/12/12 03:15:46;;;;;;;6.05;2.83;;;;;12.00;101664.00;;;;5029576;28;20207;-83
2021/12/12 03:18:18;;;;;;;5.85;2.28;;;;;12.00;101671.00;;;;5030580;28;20192;-83
2021/12/12 03:20:51;;;;;;;4.57;2.70;;;;;12.00;101669.00;;;;5029328;28;20200;-84
2021/12/12 03:23:21;;;;;;;3.72;2.28;;;;;12.00;101671.00;;;;5028718;28;20196;-83
2021/12/12 03:25:55;;;;;;;5.75;2.95;;;;;12.00;101657.00;;;;5028968;28;20220;-83
2021/12/12 03:28:25;;;;;;;4.10;2.45;;;;;12.00;101660.00;;;;5028693;28;20187;-83
2021/12/12 03:30:56;;;;;;;5.25;2.85;;;;;12.10;101661.00;;;;5029151;28;20200;-83
2021/12/12 03:33:24;;;;;;;3.30;2.13;;;;;12.10;101661.00;;;;5028090;28;20208;-83
2021/12/12 03:35:54;;;;;;;5.40;3.50;;;;;12.10;101663.00;;;;5027853;28;20208;-83
2021/12/12 03:38:24;;;;;;;4.55;2.40;;;;;12.10;101666.00;;;;5027524;28;20200;-84
2021/12/12 03:40:53;;;;;;;6.72;2.60;;;;;12.10;101672.00;;;;5024501;28;20196;-83
2021/12/12 03:43:20;;;;;;;3.88;2.83;;;;;12.10;101675.00;;;;5028758;28;20217;-83
2021/12/12 03:45:48;;;;;;;4.57;2.70;;;;;12.10;101666.00;;;;5027737;28;20709;-83
2021/12/12 03:48:19;;;;;;;5.53;3.20;;;;;12.10;101678.00;;;;5030560;28;20223;-84
2021/12/12 03:50:49;;;;;;;6.68;3.22;;;;;12.10;101682.00;;;;5026449;28;20495;-83
2021/12/12 03:53:18;;;;;;;5.70;3.08;;;;;12.10;101666.00;;;;5028027;28;20189;-84
2021/12/12 03:55:47;;;;;;;3.55;2.40;;;;;12.20;101676.00;;;;5028622;28;20221;-84
2021/12/12 03:58:16;;;;;;;3.97;2.70;;;;;12.20;101672.00;;;;5019410;28;20199;-83
2021/12/12 04:00:47;;;;;;;3.58;2.70;;;;;12.20;101682.00;;;;5029538;28;20196;-84
2021/12/12 04:03:16;;;;;;;4.60;2.80;;;;;12.20;101673.00;;;;5030545;28;20219;-83
2021/12/12 04:05:47;;;;;;;6.03;3.45;;;;;12.20;101672.00;;;;5029339;28;20270;-84
2021/12/12 04:08:14;;;;;;;4.22;3.17;;;;;12.30;101679.00;;;;5027178;28;20569;-83
2021/12/12 04:10:42;;;;;;;4.72;3.05;;;;;12.30;101675.00;;;;5029017;28;20200;-84
2021/12/12 04:13:10;;;;;;;5.28;3.47;;;;;12.30;101683.00;;;;5032297;28;20193;-83
2021/12/12 04:15:39;;;;;;;7.25;3.08;;;;;12.30;101680.00;;;;5027567;28;20585;-83
2021/12/12 04:18:06;;;;;;;3.83;2.78;;;;;12.30;101677.00;;;;5031658;28;20200;-83
2021/12/12 04:20:37;;;;;;;5.35;3.22;;;;;12.30;101677.00;;;;5032119;28;20184;-83
2021/12/12 04:23:04;;;;;;;5.00;3.05;;;;;12.30;101682.00;;;;5031716;28;20659;-83
2021/12/12 04:25:32;;;;;;;4.95;3.22;;;;;12.30;101676.00;;;;5031689;28;20224;-83
2021/12/12 04:27:59;;;;;;;3.83;3.00;;;;;12.40;101672.00;;;;5031738;28;20215;-83
2021/12/12 04:30:26;;;;;;;5.55;3.53;;;;;12.40;101673.00;;;;5032508;28;20195;-83
2021/12/12 04:32:55;;;;;;;5.63;3.20;;;;;12.40;101658.00;;;;5031422;28;20211;-84
2021/12/12 04:35:26;;;;;;;5.05;3.45;;;;;12.40;101656.00;;;;5030421;28;20207;-83
2021/12/12 04:37:54;;;;;;;5.03;2.88;;;;;12.40;101665.00;;;;5028863;28;20200;-83
2021/12/12 04:40:25;;;;;;;4.05;3.35;;;;;12.50;101674.00;;;;5019249;28;20215;-84
2021/12/12 04:42:55;;;;;;;4.18;3.28;;;;;12.50;101665.00;;;;5031517;28;20196;-83
2021/12/12 04:45:41;;;;;;;4.95;3.28;;;;;12.50;101675.00;;;;5030577;28;20318;-84
2021/12/12 04:51:09;;;;;;;4.13;3.00;;;;;12.50;101679.00;;;;5027558;28;20207;-84
2021/12/12 04:53:46;;;;;;;4.75;3.22;;;;;12.50;101685.00;;;;5030393;28;20696;-84
2021/12/12 04:56:20;;;;;;;4.45;3.47;;;;;12.60;101681.00;;;;5030208;28;20701;-83
2021/12/12 04:58:58;;;;;;;3.38;2.60;;;;;12.60;101671.00;;;;5031143;28;20207;-83
2021/12/12 05:01:31;;;;;;;3.40;3.10;;;;;12.60;101670.00;;;;5030480;28;20234;-83
2021/12/12 05:04:07;;;;;;;4.68;3.50;;;;;12.60;101669.00;;;;5030305;28;20231;-84
2021/12/12 05:06:40;;;;;;;3.78;3.38;;;;;12.60;101673.00;;;;5029274;28;20220;-83
2021/12/12 05:09:11;;;;;;;4.47;3.70;;;;;12.70;101682.00;;;;5031446;28;20192;-84
2021/12/12 05:11:46;;;;;;;5.70;3.60;;;;;12.70;101690.00;;;;5030289;28;20204;-84
2021/12/12 05:14:21;;;;;;;4.32;3.28;;;;;12.70;101684.00;;;;5030361;28;20207;-84
2021/12/12 05:16:54;;;;;;;4.30;3.20;;;;;12.70;101696.00;;;;5029630;28;20286;-83
2021/12/12 05:19:28;;;;;;;4.13;3.30;;;;;12.70;101693.00;;;;5030661;28;20580;-83
2021/12/12 05:22:00;;;;;;;4.20;3.67;;;;;12.70;101689.00;;;;5031197;28;20194;-83
2021/12/12 05:24:29;;;;;;;4.65;3.55;;;;;12.80;101691.00;;;;5018797;28;20200;-84
2021/12/12 05:27:03;;;;;;;4.43;3.22;;;;;12.80;101686.00;;;;5028747;28;20236;-83
2021/12/12 05:29:34;;;;;;;4.35;3.60;;;;;12.80;101684.00;;;;5016075;28;20211;-83
2021/12/12 05:32:05;;;;;;;4.55;3.88;;;;;12.80;101685.00;;;;5030035;28;20203;-84
2021/12/12 05:34:39;;;;;;;4.78;3.72;;;;;12.80;101674.00;;;;5011079;28;20208;-83
2021/12/12 05:37:10;;;;;;;5.30;3.75;;;;;12.80;101681.00;;;;5021532;28;20433;-83
2021/12/12 05:39:38;;;;;;;4.70;3.75;;;;;12.80;101688.00;;;;5013209;28;20204;-83
2021/12/12 05:42:05;;;;;;;4.85;3.45;;;;;12.90;101689.00;;;;5024655;28;20200;-84
2021/12/12 05:44:34;;;;;;;4.03;3.50;;;;;12.90;101687.00;;;;5028075;28;20227;-84
2021/12/12 05:47:06;;;;;;;5.10;3.50;;;;;12.90;101696.00;;;;5025888;28;20217;-84
2021/12/12 05:49:36;;;;;;;4.97;3.63;;;;;12.90;101693.00;;;;5029368;28;20234;-84
2021/12/12 05:52:08;;;;;;;3.97;3.20;;;;;12.90;101693.00;;;;5029308;28;20207;-83
2021/12/12 05:54:35;;;;;;;6.10;4.10;;;;;12.90;101698.00;;;;5028928;28;20196;-83
2021/12/12 05:57:04;;;;;;;3.70;3.30;;;;;13.00;101695.00;;;;5029800;28;20602;-83
2021/12/12 05:59:32;;;;;;;5.47;4.35;;;;;13.00;101696.00;;;;5031674;28;20193;-83
2021/12/12 06:02:03;;;;;;;6.60;4.25;;;;;13.00;101698.00;;;;5028968;28;20193;-84
2021/12/12 06:04:31;;;;;;;5.47;4.60;;;;;13.00;101694.00;;;;5031156;28;20196;-84
2021/12/12 06:07:03;;;;;;;4.07;3.67;;;;;13.00;101702.00;;;;5028989;28;20243;-84
2021/12/12 06:09:30;;;;;;;4.90;4.40;;;;;13.00;101697.00;;;;5031501;28;20208;-83
2021/12/12 06:12:00;;;;;;;6.15;4.57;;;;;13.10;101688.00;;;;5025269;28;20587;-84
2021/12/12 06:14:30;;;;;;;6.53;4.28;;;;;13.10;101700.00;;;;5029556;28;20670;-83
2021/12/12 06:16:59;;;;;;;6.53;4.28;;;;;13.10;101692.00;;;;5029861;28;20204;-84
2021/12/12 06:19:26;;;;;;;5.22;4.53;;;;;13.10;101691.00;;;;5029565;28;20196;-84
2021/12/12 06:21:57;;;;;;;5.45;4.45;;;;;13.10;101687.00;;;;5028369;28;20192;-83
2021/12/12 06:24:28;;;;;;;6.32;4.82;;;;;13.20;101685.00;;;;5029363;28;20197;-83
2021/12/12 06:26:57;;;;;;;6.93;4.47;;;;;13.20;101689.00;;;;5027314;28;20247;-83
2021/12/12 06:29:25;;;;;;;5.03;4.53;;;;;13.20;101685.00;;;;5030235;28;20259;-83
2021/12/12 06:31:53;;;;;;;6.82;5.00;;;;;13.20;101701.00;;;;5028734;28;20204;-83
2021/12/12 06:34:21;;;;;;;6.53;5.53;;;;;13.30;101700.00;;;;5029831;28;20231;-83
2021/12/12 06:36:50;;;;;;;7.55;4.85;;;;;13.30;101694.00;;;;5028769;28;20216;-84
2021/12/12 06:39:18;;;;;;;6.57;4.90;;;;;13.30;101701.00;;;;5028247;28;20699;-83
2021/12/12 06:41:48;;;;;;;7.82;5.18;;;;;13.30;101697.00;;;;5023544;28;20207;-85
2021/12/12 06:44:17;;;;;;;7.13;5.18;;;;;13.30;101699.00;;;;5026679;28;20220;-83
2021/12/12 06:46:45;;;;;;;6.00;5.07;;;;;13.40;101703.00;;;;5021289;28;20240;-83
2021/12/12 06:49:15;;;;;;;6.75;5.22;;;;;13.30;101705.00;;;;5020925;28;20334;-83
2021/12/12 06:51:46;;;;;;;7.15;5.22;;;;;13.40;101708.00;;;;5022331;28;20634;-83
2021/12/12 06:54:16;;;;;;;7.43;5.63;;;;;13.40;101713.00;;;;5025730;28;20195;-83
2021/12/12 06:56:44;;;;;;;7.05;5.38;;;;;13.40;101723.00;;;;5018674;28;20228;-84
2021/12/12 06:59:13;;;;;;;7.70;5.55;;;;;13.40;101720.00;;;;5021983;28;20197;-84
2021/12/12 07:01:41;;;;;;;8.68;6.20;;;;;13.50;101718.00;;;;5023169;28;20204;-83
2021/12/12 07:04:11;;;;;;;6.43;5.13;;;;;13.50;101715.00;;;;5023100;28;20204;-83
2021/12/12 07:06:40;;;;;;;10.43;6.25;;;;;13.50;101711.00;;;;5020578;28;20238;-83
2021/12/12 07:09:09;;;;;;;9.45;6.63;;;;;13.50;101718.00;;;;5026130;28;20200;-83
2021/12/12 07:11:38;;;;;;;10.73;6.20;;;;;13.50;101717.00;;;;5020187;28;20200;-83
2021/12/12 07:14:06;;;;;;;10.10;7.10;;;;;13.60;101718.00;;;;5024933;28;20198;-83
2021/12/12 07:16:36;;;;;;;8.70;6.10;;;;;13.60;101723.00;;;;5022092;28;20197;-83
2021/12/12 07:19:05;;;;;;;8.95;6.57;;;;;13.60;101716.00;;;;5027106;28;22165;-83
2021/12/12 07:21:32;;;;;;;9.75;7.50;;;;;13.60;101720.00;;;;5025099;28;20219;-83
2021/12/12 07:24:02;;;;;;;7.82;6.70;;;;;13.60;101724.00;;;;5028023;28;20233;-84
2021/12/12 07:26:30;;;;;;;12.05;7.13;;;;;13.60;101725.00;;;;5027220;28;20227;-84
2021/12/12 07:28:59;;;;;;;10.95;8.00;;;;;13.70;101729.00;;;;5022037;28;20219;-83
2021/12/12 07:31:29;;;;;;;13.05;7.00;;;;;13.70;101740.00;;;;5022386;28;20201;-83
2021/12/12 07:34:01;;;;;;;11.52;8.18;;;;;13.70;101739.00;;;;5022432;28;20205;-83
2021/12/12 07:36:33;;;;;;;13.30;7.88;;;;;13.70;101737.00;;;;5023899;28;20212;-83
2021/12/12 07:39:04;;;;;;;11.25;7.45;;;;;13.70;101745.00;;;;5025854;28;20569;-84
2021/12/12 07:41:33;;;;;;;11.05;7.35;;;;;13.70;101750.00;;;;5025183;28;20195;-84
2021/12/12 07:44:02;;;;;;;13.30;7.35;;;;;13.80;101748.00;;;;5026496;28;20220;-84
2021/12/12 07:46:29;;;;;;;11.25;7.35;;;;;13.80;101746.00;;;;5023743;28;20227;-84
2021/12/12 07:48:59;;;;;;;13.07;8.38;;;;;13.80;101753.00;;;;5027816;28;20219;-85
2021/12/12 07:51:27;;;;;;;12.45;8.57;;;;;13.80;101753.00;;;;5028248;28;21391;-85
2021/12/12 07:53:58;;;;;;;10.93;7.45;;;;;13.90;101759.00;;;;5030932;28;20204;-83
2021/12/12 07:56:28;;;;;;;14.77;8.82;;;;;13.90;101763.00;;;;5025621;28;20311;-83
2021/12/12 07:58:57;;;;;;;11.52;7.90;;;;;13.90;101761.00;;;;5028647;28;20698;-83
2021/12/12 08:01:25;;;;;;;13.05;7.95;;;;;13.90;101754.00;;;;5024911;28;20293;-83
2021/12/12 08:03:53;;;;;;;12.82;8.55;;;;;13.90;101770.00;;;;5025750;28;20216;-84
2021/12/12 08:06:23;;;;;;;11.65;7.82;;;;;13.90;101770.00;;;;5029440;28;20232;-84
2021/12/12 08:08:50;;;;;;;18.77;8.80;;;;;14.00;101769.00;;;;5022798;28;20201;-84
2021/12/12 08:11:19;;;;;;;14.85;8.85;;;;;14.00;101767.00;;;;5024248;28;20593;-85
2021/12/12 08:13:47;;;;;;;14.43;8.40;;;;;14.00;101778.00;;;;5027343;28;20204;-84
2021/12/12 08:16:15;;;;;;;15.57;8.23;;;;;14.10;101778.00;;;;5027854;28;20200;-84
2021/12/12 08:18:43;;;;;;;14.45;9.18;;;;;14.10;101783.00;;;;5026696;28;20571;-84
2021/12/12 08:21:12;;;;;;;17.67;8.27;;;;;14.10;101779.00;;;;5030237;28;20714;-84
2021/12/12 08:23:43;;;;;;;13.85;8.25;;;;;14.10;101773.00;;;;5030915;28;20214;-84
2021/12/12 08:26:12;;;;;;;12.65;8.73;;;;;14.10;101786.00;;;;5026646;28;20652;-84
2021/12/12 08:28:40;;;;;;;13.73;8.43;;;;;14.20;101794.00;;;;5023981;28;20207;-82
2021/12/12 08:31:08;;;;;;;17.27;9.57;;;;;14.20;101800.00;;;;5028240;28;20204;-82
2021/12/12 08:33:35;;;;;;;13.98;8.32;;;;;14.20;101795.00;;;;5027871;28;20204;-83
2021/12/12 08:36:04;;;;;;;14.68;8.38;;;;;14.20;101797.00;;;;5026271;28;20250;-81
2021/12/12 08:38:32;;;;;;;14.55;8.70;;;;;14.30;101800.00;;;;5024577;28;20200;-81
2021/12/12 08:41:02;;;;;;;13.70;9.75;;;;;14.30;101800.00;;;;5023415;28;20208;-82
2021/12/12 08:43:31;;;;;;;14.23;8.95;;;;;14.30;101805.00;;;;5024200;28;20709;-82
2021/12/12 08:46:01;;;;;;;13.07;8.15;;;;;14.30;101807.00;;;;5025243;28;20246;-82
2021/12/12 08:48:32;;;;;;;12.68;8.05;;;;;14.30;101802.00;;;;5029956;28;20742;-82
2021/12/12 08:51:03;;;;;;;15.10;8.98;;;;;14.30;101813.00;;;;5029628;28;20202;-82
2021/12/12 08:53:31;;;;;;;14.70;9.25;;;;;14.40;101811.00;;;;5024716;28;20200;-82
2021/12/12 08:56:01;;;;;;;14.73;9.20;;;;;14.40;101814.00;;;;5024885;28;20220;-81
2021/12/12 08:58:30;;;;;;;12.65;8.57;;;;;14.40;101816.00;;;;5023725;28;20204;-83
2021/12/12 09:01:01;;;;;;;14.43;8.55;;;;;14.40;101817.00;;;;5031799;28;20211;-84
2021/12/12 09:03:33;;;;;;;14.65;8.48;;;;;14.40;101825.00;;;;5030593;28;20205;-84
2021/12/12 09:06:00;;;;;;;14.02;8.57;;;;;14.50;101823.00;;;;5031780;28;20195;-84
2021/12/12 09:08:41;;;;;;;14.95;8.68;;;;;14.40;101828.00;;;;5031982;28;20199;-85
2021/12/12 09:11:18;;;;;;;10.30;6.63;;;;;14.40;101831.00;;;;5028737;28;20205;-84
2021/12/12 09:13:52;;;;;;;10.45;7.00;;;;;14.50;101830.00;;;;5023869;28;20208;-84
2021/12/12 09:16:23;;;;;;;10.45;7.10;;;;;14.50;101836.00;;;;5028939;28;20208;-84
2021/12/12 09:18:54;;;;;;;12.82;8.50;;;;;14.50;101831.00;;;;5031896;28;20202;-84
2021/12/12 09:21:26;;;;;;;13.65;7.75;;;;;14.60;101834.00;;;;5027632;28;20193;-84
2021/12/12 09:24:05;;;;;;;11.82;7.95;;;;;14.60;101839.00;;;;5029637;28;20196;-83
2021/12/12 09:26:38;;;;;;;10.52;7.28;;;;;14.60;101838.00;;;;5024369;28;20306;-84
2021/12/12 09:29:16;;;;;;;13.68;8.20;;;;;14.60;101838.00;;;;5021750;28;20200;-84
2021/12/12 09:31:50;;;;;;;12.63;7.57;;;;;14.70;101847.00;;;;5029202;28;20196;-82
2021/12/12 09:34:25;;;;;;;18.10;9.20;;;;;14.70;101839.00;;;;5033068;28;20184;-83
2021/12/12 09:36:57;;;;;;;10.48;7.55;;;;;14.70;101846.00;;;;5032383;28;20670;-82
2021/12/12 09:39:27;;;;;;;10.32;7.60;;;;;14.70;101847.00;;;;5028521;28;20201;-82
2021/12/12 09:42:16;;;;;;;12.75;8.43;;;;;14.60;101851.00;;;;5030160;28;20193;-82
2021/12/12 09:45:03;;;;;;;12.02;7.65;;;;;14.70;101857.00;;;;5027032;28;20702;-84
2021/12/12 09:48:14;;;;;;;16.92;8.90;;;;;14.70;101863.00;;;;5036649;28;20651;-83
2021/12/12 09:51:16;;;;;;;12.30;7.68;;;;;14.80;101863.00;;;;5024675;28;20279;-83
2021/12/12 09:54:14;;;;;;;11.07;7.25;;;;;14.70;101857.00;;;;5026936;28;20203;-84
2021/12/12 09:56:49;;;;;;;12.07;7.55;;;;;14.80;101864.00;;;;5027916;28;20228;-84
2021/12/12 09:59:39;;;;;;;14.60;8.68;;;;;14.80;101860.00;;;;5027253;28;20203;-81
2021/12/12 10:02:17;;;;;;;11.02;7.28;;;;;14.90;101865.00;;;;5028891;28;20207;-81
2021/12/12 10:04:53;;;;;;;11.52;7.05;;;;;14.90;101872.00;;;;5028960;28;20193;-84
2021/12/12 10:07:30;;;;;;;10.85;7.07;;;;;14.90;101875.00;;;;5027583;28;20698;-83
2021/12/12 10:10:00;;;;;;;9.93;7.10;;;;;15.00;101862.00;;;;5028712;28;20681;-84
2021/12/12 10:12:30;;;;;;;10.98;7.25;;;;;15.00;101873.00;;;;5019135;28;20205;-84
2021/12/12 10:15:11;;;;;;;10.40;7.13;;;;;14.90;101872.00;;;;5029217;28;20219;-83
2021/12/12 10:17:43;;;;;;;9.60;6.68;;;;;15.00;101865.00;;;;5017518;28;21163;-81
2021/12/12 10:20:13;;;;;;;8.70;5.97;;;;;15.00;101874.00;;;;5027344;28;20215;-82
2021/12/12 10:22:56;;;;;;;8.45;6.22;;;;;15.00;101858.00;;;;5027240;28;20196;-80
2021/12/12 10:25:28;;;;;;;9.70;6.75;;;;;15.10;101862.00;;;;5032731;28;20200;-83
2021/12/12 10:28:00;;;;;;;8.38;6.13;;;;;15.10;101862.00;;;;5027152;28;20694;-83
2021/12/12 10:30:34;;;;;;;7.80;5.88;;;;;15.10;101865.00;;;;5028674;28;20207;-83
2021/12/12 10:33:10;;;;;;;7.88;6.10;;;;;15.10;101848.00;;;;5028803;28;20200;-84
2021/12/12 10:35:42;;;;;;;9.25;6.72;;;;;15.10;101854.00;;;;5029463;28;20382;-84
2021/12/12 10:38:14;;;;;;;7.60;5.78;;;;;15.10;101843.00;;;;5028203;28;20193;-82
2021/12/12 10:40:49;;;;;;;8.75;6.55;;;;;15.10;101840.00;;;;5027761;28;20198;-80
2021/12/12 10:43:24;;;;;;;7.68;6.20;;;;;15.10;101842.00;;;;5027945;28;20204;-80
2021/12/12 10:45:57;;;;;;;6.15;5.13;;;;;15.10;101852.00;;;;5021355;28;20215;-81
2021/12/12 10:48:31;;;;;;;6.50;5.22;;;;;15.10;101859.00;;;;5013201;28;20262;-82
2021/12/12 10:51:05;;;;;;;8.73;5.88;;;;;15.10;101851.00;;;;5028135;28;20197;-82
2021/12/12 10:53:39;;;;;;;7.18;5.65;;;;;15.10;101861.00;;;;5028038;28;20203;-82
2021/12/12 10:56:18;;;;;;;6.45;5.18;;;;;15.10;101858.00;;;;5027969;28;20228;-82
2021/12/12 10:58:49;;;;;;;6.28;4.70;;;;;15.20;101869.00;;;;5027525;28;20230;-82
2021/12/12 11:01:21;;;;;;;5.88;5.03;;;;;15.20;101870.00;;;;5027881;28;20215;-82
2021/12/12 11:03:52;;;;;;;8.45;5.90;;;;;15.20;101858.00;;;;5013863;28;20208;-82
2021/12/12 11:06:26;;;;;;;7.28;5.78;;;;;15.20;101861.00;;;;5008271;28;20201;-81
2021/12/12 11:08:59;;;;;;;7.50;5.57;;;;;15.30;101865.00;;;;5008378;28;20204;-82
2021/12/12 11:11:32;;;;;;;6.13;5.10;;;;;15.30;101865.00;;;;5007833;28;20621;-81
2021/12/12 11:14:11;;;;;;;7.10;5.05;;;;;15.30;101862.00;;;;5007903;28;20197;-82
2021/12/12 11:16:47;;;;;;;7.00;4.72;;;;;15.30;101856.00;;;;5017659;28;20211;-82
2021/12/12 11:19:17;;;;;;;6.30;5.22;;;;;15.40;101865.00;;;;5028380;28;20219;-82
2021/12/12 11:21:49;;;;;;;8.45;5.35;;;;;15.40;101851.00;;;;5011984;28;20231;-81
2021/12/12 11:24:22;;;;;;;5.82;5.00;;;;;15.40;101849.00;;;;5015241;28;20200;-81
2021/12/12 11:26:57;;;;;;;6.00;4.90;;;;;15.40;101856.00;;;;5031917;28;20204;-81
2021/12/12 11:29:28;;;;;;;6.18;4.95;;;;;15.50;101853.00;;;;5031830;28;20199;-82
2021/12/12 11:32:01;;;;;;;6.55;5.35;;;;;15.50;101857.00;;;;5031467;28;20192;-81
2021/12/12 11:34:29;;;;;;;6.30;4.97;;;;;15.50;101851.00;;;;5031560;28;20193;-81
2021/12/12 11:37:13;;;;;;;6.75;5.25;;;;;15.50;101855.00;;;;5024665;28;20205;-82
2021/12/12 11:39:47;;;;;;;6.57;5.20;;;;;15.60;101851.00;;;;5011746;28;20279;-82
2021/12/12 11:42:21;;;;;;;5.50;4.85;;;;;15.60;101859.00;;;;5017280;28;20801;-82
2021/12/12 11:45:00;;;;;;;6.25;4.60;;;;;15.60;101857.00;;;;5032596;28;20650;-82
2021/12/12 11:48:01;;;;;;;6.32;5.00;;;;;15.60;101857.00;;;;5031617;28;20227;-82
2021/12/12 11:50:43;;;;;;;5.03;4.07;;;;;15.60;101863.00;;;;5021605;28;20218;-81
2021/12/12 11:53:17;;;;;;;6.55;4.63;;;;;15.60;101870.00;;;;5029444;28;20199;-81
2021/12/12 11:55:48;;;;;;;7.35;4.80;;;;;15.70;101861.00;;;;5024559;28;20825;-81
2021/12/12 11:58:27;;;;;;;5.75;4.63;;;;;15.60;101862.00;;;;5020858;28;20620;-81
2021/12/12 12:01:00;;;;;;;5.20;4.35;;;;;15.70;101865.00;;;;5027092;28;20657;-81
2021/12/12 12:03:38;;;;;;;6.65;4.55;;;;;15.70;101872.00;;;;5026699;28;20184;-81
2021/12/12 12:06:21;;;;;;;5.20;4.55;;;;;15.60;101869.00;;;;5031469;28;20200;-80
2021/12/12 12:09:08;;;;;;;5.60;4.28;;;;;15.60;101883.00;;;;5031058;28;20224;-80
2021/12/12 12:11:51;;;;;;;5.93;4.47;;;;;15.70;101875.00;;;;5024381;28;20342;-79
2021/12/12 12:14:27;;;;;;;5.80;3.97;;;;;15.70;101880.00;;;;5030905;28;20203;-79
2021/12/12 12:16:58;;;;;;;6.65;4.85;;;;;15.80;101884.00;;;;5031763;28;20204;-80
2021/12/12 12:19:39;;;;;;;5.75;4.57;;;;;15.70;101887.00;;;;5031433;28;20566;-81
2021/12/12 12:22:23;;;;;;;6.22;4.38;;;;;15.70;101881.00;;;;5026005;28;20588;-82
2021/12/12 12:25:01;;;;;;;6.80;4.90;;;;;15.80;101885.00;;;;5029457;28;20215;-81
2021/12/12 12:27:34;;;;;;;5.70;4.25;;;;;15.80;101883.00;;;;5035771;28;20299;-81
2021/12/12 12:30:31;;;;;;;6.35;4.68;;;;;15.70;101893.00;;;;5030370;28;20208;-81
2021/12/12 12:33:41;;;;;;;5.47;3.92;;;;;15.70;101879.00;;;;5027966;28;20671;-79
2021/12/12 12:36:51;;;;;;;5.00;3.90;;;;;15.70;101888.00;;;;5031088;28;20287;-80
2021/12/12 12:39:56;;;;;;;4.78;3.58;;;;;15.70;101895.00;;;;5029683;28;20196;-78
2021/12/12 12:43:00;;;;;;;4.70;3.70;;;;;15.70;101889.00;;;;5029556;28;20228;-81
2021/12/12 12:46:01;;;;;;;5.43;3.45;;;;;15.70;101895.00;;;;5029066;28;20221;-82